createdAt,value
2018-06-04T00:00:01.906Z,24.17
2018-06-04T00:02:36.785Z,26.53
2018-06-04T00:05:11.723Z,26.43
2018-06-04T00:07:46.859Z,23.77
2018-06-04T00:10:21.694Z,23.47
2018-06-04T00:12:56.799Z,24.37
2018-06-04T00:15:31.912Z,27.53
2018-06-04T00:18:06.823Z,22.60
2018-06-04T00:20:41.614Z,24.13
2018-06-04T00:23:16.616Z,25.13
2018-06-04T00:25:51.804Z,25.00
2018-06-04T00:28:26.719Z,24.77
2018-06-04T00:31:01.574Z,26.63
2018-06-04T00:33:36.528Z,24.20
2018-06-04T00:36:11.599Z,24.33
2018-06-04T00:38:46.573Z,25.93
2018-06-04T00:41:21.547Z,24.23
2018-06-04T00:43:56.708Z,22.50
2018-06-04T00:46:31.564Z,28.23
2018-06-04T00:49:06.553Z,25.97
2018-06-04T00:51:41.658Z,26.37
2018-06-04T00:54:16.594Z,25.47
2018-06-04T00:56:51.671Z,23.03
2018-06-04T00:59:27.041Z,28.67
2018-06-04T01:02:02.115Z,24.07
2018-06-04T01:04:36.935Z,27.23
2018-06-04T01:07:11.820Z,29.77
2018-06-04T01:09:46.762Z,27.17
2018-06-04T01:12:21.743Z,26.53
2018-06-04T01:14:56.504Z,26.50
2018-06-04T01:17:31.434Z,28.20
2018-06-04T01:20:06.915Z,28.10
2018-06-04T01:22:42.030Z,27.37
2018-06-04T01:25:16.962Z,26.93
2018-06-04T01:27:51.922Z,30.30
2018-06-04T01:30:26.741Z,26.30
2018-06-04T01:33:01.587Z,28.10
2018-06-04T01:35:36.434Z,29.63
2018-06-04T01:38:11.435Z,30.27
2018-06-04T01:40:46.754Z,32.17
2018-06-04T01:43:21.627Z,32.70
2018-06-04T01:45:56.471Z,29.87
2018-06-04T01:48:31.416Z,31.10
2018-06-04T01:51:06.295Z,29.77
2018-06-04T01:53:41.684Z,29.37
2018-06-04T01:56:16.678Z,28.47
2018-06-04T01:58:51.456Z,29.70
2018-06-04T02:01:26.121Z,31.20
2018-06-04T02:04:01.268Z,28.80
2018-06-04T02:06:36.293Z,35.30
2018-06-04T02:09:11.528Z,30.10
2018-06-04T02:11:46.186Z,30.40
2018-06-04T02:14:21.246Z,31.90
2018-06-04T02:16:56.004Z,33.70
2018-06-04T02:19:31.050Z,30.27
2018-06-04T02:22:05.633Z,32.43
2018-06-04T02:24:40.627Z,32.73
2018-06-04T02:27:15.446Z,31.40
2018-06-04T02:29:50.333Z,33.17
2018-06-04T02:32:25.430Z,35.50
2018-06-04T02:35:00.309Z,36.43
2018-06-04T02:37:35.185Z,32.97
2018-06-04T02:40:10.468Z,34.67
2018-06-04T02:42:45.610Z,34.83
2018-06-04T02:45:20.722Z,35.67
2018-06-04T02:47:55.420Z,34.57
2018-06-04T02:50:30.409Z,34.83
2018-06-04T02:53:05.474Z,37.10
2018-06-04T02:55:40.645Z,34.73
2018-06-04T02:58:15.477Z,33.90
2018-06-04T03:00:50.518Z,34.80
2018-06-04T03:03:25.347Z,35.00
2018-06-04T03:06:00.691Z,39.07
2018-06-04T03:08:35.560Z,38.17
2018-06-04T03:11:10.667Z,35.60
2018-06-04T03:13:45.509Z,37.50
2018-06-04T03:16:20.386Z,36.93
2018-06-04T03:18:55.603Z,37.03
2018-06-04T03:21:30.558Z,36.97
2018-06-04T03:24:05.700Z,39.10
2018-06-04T03:26:40.804Z,46.63
2018-06-04T03:29:15.653Z,35.60
2018-06-04T03:31:50.620Z,35.17
2018-06-04T03:34:25.544Z,35.90
2018-06-04T03:37:02.076Z,36.10
2018-06-04T03:39:36.882Z,36.73
2018-06-04T03:42:11.665Z,33.97
2018-06-04T03:44:46.594Z,35.90
2018-06-04T03:47:21.654Z,35.40
2018-06-04T03:49:56.635Z,40.10
2018-06-04T03:52:31.724Z,35.90
2018-06-04T03:55:06.463Z,34.80
2018-06-04T03:57:41.388Z,41.97
2018-06-04T04:00:16.320Z,39.30
2018-06-04T04:02:51.297Z,35.33
2018-06-04T04:05:26.933Z,36.23
2018-06-04T04:08:01.856Z,32.67
2018-06-04T04:10:36.746Z,35.10
2018-06-04T04:13:11.416Z,35.33
2018-06-04T04:15:46.744Z,33.73
2018-06-04T04:18:21.558Z,35.13
2018-06-04T04:20:56.724Z,36.27
2018-06-04T04:23:31.528Z,38.93
2018-06-04T04:26:06.255Z,37.20
2018-06-04T04:28:44.032Z,33.73
2018-06-04T04:31:18.843Z,35.97
2018-06-04T04:33:53.767Z,33.30
2018-06-04T04:36:28.499Z,37.80
2018-06-04T04:39:04.656Z,33.00
2018-06-04T04:41:39.793Z,36.27
2018-06-04T04:44:14.795Z,35.10
2018-06-04T04:46:50.233Z,37.70
2018-06-04T04:49:25.518Z,37.13
2018-06-04T04:52:00.626Z,32.60
2018-06-04T04:54:36.158Z,31.30
2018-06-04T04:57:10.665Z,33.33
2018-06-04T04:59:45.237Z,40.37
2018-06-04T05:02:20.398Z,34.43
2018-06-04T05:04:55.473Z,34.97
2018-06-04T05:07:30.380Z,32.43
2018-06-04T05:10:05.588Z,35.43
2018-06-04T05:12:40.422Z,34.23
2018-06-04T05:15:15.615Z,34.17
2018-06-04T05:17:50.634Z,34.00
2018-06-04T05:20:25.497Z,35.93
2018-06-04T05:23:00.744Z,33.47
2018-06-04T05:25:35.551Z,35.73
2018-06-04T05:28:10.724Z,34.40
2018-06-04T05:30:45.560Z,34.90
2018-06-04T05:33:20.381Z,44.90
2018-06-04T05:35:54.947Z,38.60
2018-06-04T05:38:29.851Z,36.87
2018-06-04T05:41:04.640Z,42.30
2018-06-04T05:43:39.575Z,39.83
2018-06-04T05:46:15.655Z,40.20
2018-06-04T05:48:50.591Z,36.77
2018-06-04T05:51:25.626Z,41.37
2018-06-04T05:54:00.349Z,35.00
2018-06-04T05:56:35.252Z,40.70
2018-06-04T05:59:10.268Z,39.47
2018-06-04T06:01:45.177Z,38.40
2018-06-04T06:04:20.183Z,41.97
2018-06-04T06:06:55.511Z,41.93
2018-06-04T06:09:31.251Z,38.60
2018-06-04T06:12:06.403Z,43.47
2018-06-04T06:14:41.946Z,46.97
2018-06-04T06:17:16.862Z,40.83
2018-06-04T06:19:51.869Z,42.23
2018-06-04T06:22:27.131Z,48.97
2018-06-04T06:25:02.183Z,49.27
2018-06-04T06:27:37.541Z,46.87
2018-06-04T06:30:12.272Z,43.67
2018-06-04T06:32:47.272Z,50.40
2018-06-04T06:35:22.449Z,52.27
2018-06-04T06:37:57.464Z,45.90
2018-06-04T06:40:32.340Z,49.77
2018-06-04T06:43:07.266Z,46.97
2018-06-04T06:45:42.128Z,47.07
2018-06-04T06:48:17.329Z,52.87
2018-06-04T06:50:52.170Z,46.30
2018-06-04T06:53:28.404Z,44.93
2018-06-04T06:56:10.256Z,45.57
2018-06-04T06:58:45.248Z,40.97
2018-06-04T07:01:20.528Z,40.00
2018-06-04T07:03:55.418Z,41.13
2018-06-04T07:06:30.459Z,42.87
2018-06-04T07:09:08.197Z,45.40
2018-06-04T07:11:42.981Z,43.77
2018-06-04T07:14:18.048Z,42.97
2018-06-04T07:16:53.304Z,41.03
2018-06-04T07:19:28.532Z,43.60
2018-06-04T07:22:03.422Z,45.87
2018-06-04T07:24:38.609Z,43.17
2018-06-04T07:27:13.476Z,43.73
2018-06-04T07:29:48.427Z,46.33
2018-06-04T07:32:23.676Z,40.33
2018-06-04T07:34:58.519Z,42.40
2018-06-04T07:37:33.814Z,42.70
2018-06-04T07:40:09.850Z,36.63
2018-06-04T07:42:45.014Z,35.50
2018-06-04T07:45:20.268Z,35.83
2018-06-04T07:47:55.993Z,36.97
2018-06-04T07:50:41.896Z,33.70
2018-06-04T07:53:11.458Z,34.43
2018-06-04T07:55:40.960Z,32.93
2018-06-04T07:58:16.206Z,35.97
2018-06-04T08:00:45.419Z,38.40
2018-06-04T08:03:20.027Z,37.10
2018-06-04T08:05:50.744Z,40.03
2018-06-04T08:08:26.494Z,36.50
2018-06-04T08:10:55.693Z,39.43
2018-06-04T08:13:25.190Z,36.90
2018-06-04T08:15:55.110Z,37.20
2018-06-04T08:18:24.385Z,33.40
2018-06-04T08:20:53.751Z,30.37
2018-06-04T08:23:23.300Z,30.10
2018-06-04T08:25:52.694Z,27.80
2018-06-04T08:28:21.839Z,26.33
2018-06-04T08:30:51.398Z,28.10
2018-06-04T08:33:20.537Z,29.20
2018-06-04T08:35:50.590Z,26.50
2018-06-04T08:38:19.842Z,24.40
2018-06-04T08:40:49.421Z,24.90
2018-06-04T08:43:19.917Z,24.97
2018-06-04T08:45:49.119Z,19.83
2018-06-04T08:48:18.316Z,19.53
2018-06-04T08:50:47.843Z,20.43
2018-06-04T08:53:17.110Z,20.83
2018-06-04T08:55:46.418Z,19.93
2018-06-04T08:58:15.888Z,20.17
2018-06-04T09:00:45.392Z,16.87
2018-06-04T09:03:14.773Z,16.73
2018-06-04T09:05:44.325Z,19.10
2018-06-04T09:08:13.600Z,19.97
2018-06-04T09:10:43.012Z,14.80
2018-06-04T09:13:12.668Z,17.13
2018-06-04T09:15:42.096Z,14.70
2018-06-04T09:18:11.371Z,13.20
2018-06-04T09:20:40.902Z,13.50
2018-06-04T09:23:10.333Z,14.07
2018-06-04T09:25:39.557Z,13.83
2018-06-04T09:28:09.373Z,12.53
2018-06-04T09:30:38.447Z,19.43
2018-06-04T09:33:07.470Z,16.83
2018-06-04T09:35:36.896Z,15.73
2018-06-04T09:38:06.267Z,15.60
2018-06-04T09:40:35.617Z,15.50
2018-06-04T09:43:04.977Z,15.27
2018-06-04T09:45:34.243Z,14.13
2018-06-04T09:48:03.593Z,14.87
2018-06-04T09:50:32.854Z,16.43
2018-06-04T09:53:02.242Z,14.37
2018-06-04T09:55:31.608Z,20.20
2018-06-04T09:58:00.960Z,15.77
2018-06-04T10:00:34.429Z,18.23
2018-06-04T10:03:05.094Z,15.40
2018-06-04T10:05:34.503Z,17.63
2018-06-04T10:08:04.494Z,13.37
2018-06-04T10:10:33.980Z,12.30
2018-06-04T10:13:02.951Z,11.27
2018-06-04T10:15:32.274Z,11.37
2018-06-04T10:18:01.808Z,14.60
2018-06-04T10:22:52.011Z,14.37
2018-06-04T10:25:21.093Z,15.00
2018-06-04T10:27:50.401Z,20.23
2018-06-04T10:30:20.016Z,19.50
2018-06-04T10:32:49.344Z,23.00
2018-06-04T10:35:18.848Z,17.77
2018-06-04T10:37:48.385Z,20.77
2018-06-04T10:40:18.249Z,18.10
2018-06-04T10:42:47.644Z,18.80
2018-06-04T10:45:17.116Z,16.63
2018-06-04T10:47:46.532Z,14.23
2018-06-04T10:50:16.402Z,15.00
2018-06-04T10:52:45.800Z,16.83
2018-06-04T10:55:15.492Z,15.90
2018-06-04T10:57:45.059Z,15.23
2018-06-04T11:00:14.375Z,19.93
2018-06-04T11:02:43.788Z,16.20
2018-06-04T11:05:14.800Z,14.70
2018-06-04T11:07:45.468Z,15.00
2018-06-04T11:10:14.736Z,14.20
2018-06-04T11:12:44.196Z,14.13
2018-06-04T11:15:13.782Z,15.70
2018-06-04T11:17:43.254Z,15.63
2018-06-04T11:20:12.636Z,14.30
2018-06-04T11:22:42.014Z,14.40
2018-06-04T11:25:11.864Z,14.07
2018-06-04T11:27:41.634Z,18.40
2018-06-04T11:30:10.553Z,13.20
2018-06-04T11:32:39.771Z,12.90
2018-06-04T11:35:09.485Z,13.57
2018-06-04T11:37:38.781Z,16.00
2018-06-04T11:40:08.106Z,13.30
2018-06-04T11:42:37.599Z,12.47
2018-06-04T11:45:06.957Z,11.50
2018-06-04T11:47:36.328Z,11.87
2018-06-04T11:50:05.739Z,12.60
2018-06-04T11:52:34.966Z,10.53
2018-06-04T11:55:04.665Z,10.20
2018-06-04T11:57:37.092Z,11.17
2018-06-04T12:00:06.670Z,10.80
2018-06-04T12:02:36.120Z,12.23
2018-06-04T12:05:05.724Z,21.57
2018-06-04T12:07:35.255Z,26.63
2018-06-04T12:10:04.725Z,20.37
2018-06-04T12:12:34.094Z,22.37
2018-06-04T12:15:03.761Z,25.30
2018-06-04T12:17:33.497Z,26.60
2018-06-04T12:20:02.991Z,28.93
2018-06-04T12:22:32.444Z,27.63
2018-06-04T12:25:02.368Z,28.73
2018-06-04T12:27:37.147Z,30.10
2018-06-04T12:30:12.071Z,28.53
2018-06-04T12:32:46.559Z,29.07
2018-06-04T12:35:21.239Z,32.70
2018-06-04T12:37:56.226Z,25.10
2018-06-04T12:40:31.120Z,26.43
2018-06-04T12:43:06.078Z,30.97
2018-06-04T12:45:35.210Z,31.17
2018-06-04T12:48:04.624Z,31.73
2018-06-04T12:50:34.339Z,29.60
2018-06-04T12:53:03.561Z,28.03
2018-06-04T12:55:33.093Z,32.17
2018-06-04T12:58:08.136Z,33.03
2018-06-04T13:00:43.297Z,28.97
2018-06-04T13:03:18.436Z,30.60
2018-06-04T13:05:52.978Z,31.17
2018-06-04T13:08:27.883Z,29.73
2018-06-04T13:11:02.641Z,25.17
2018-06-04T13:13:32.154Z,21.40
2018-06-04T13:16:07.558Z,19.60
2018-06-04T13:18:42.436Z,18.37
2018-06-04T13:21:17.300Z,15.23
2018-06-04T13:23:53.027Z,13.67
2018-06-04T13:26:27.849Z,15.30
2018-06-04T13:29:02.698Z,19.47
2018-06-04T13:31:37.668Z,25.90
2018-06-04T13:34:12.620Z,26.03
2018-06-04T13:36:47.534Z,28.50
2018-06-04T13:39:22.459Z,29.53
2018-06-04T13:41:57.823Z,25.10
2018-06-04T13:44:32.713Z,24.83
2018-06-04T13:47:07.580Z,29.63
2018-06-04T13:49:42.497Z,26.80
2018-06-04T13:52:17.311Z,24.07
2018-06-04T13:54:46.833Z,29.70
2018-06-04T13:57:21.679Z,26.27
2018-06-04T13:59:56.416Z,27.57
2018-06-04T14:02:31.471Z,25.27
2018-06-04T14:05:08.508Z,28.80
2018-06-04T14:07:43.609Z,27.50
2018-06-04T14:10:18.422Z,27.20
2018-06-04T14:12:53.291Z,27.67
2018-06-04T14:15:28.366Z,30.80
2018-06-04T14:18:03.273Z,28.07
2018-06-04T14:20:38.398Z,29.33
2018-06-04T14:23:13.277Z,30.10
2018-06-04T14:25:48.338Z,34.13
2018-06-04T14:28:23.191Z,30.57
2018-06-04T14:30:58.031Z,33.00
2018-06-04T14:33:33.733Z,29.33
2018-06-04T14:36:08.752Z,30.07
2018-06-04T14:38:43.886Z,28.23
2018-06-04T14:41:18.829Z,28.80
2018-06-04T14:43:48.263Z,30.57
2018-06-04T14:46:23.257Z,27.20
2018-06-04T14:48:58.169Z,31.33
2018-06-04T14:51:33.156Z,29.83
2018-06-04T14:54:08.498Z,31.97
2018-06-04T14:56:43.536Z,29.43
2018-06-04T14:59:18.355Z,28.60
2018-06-04T15:01:53.485Z,28.50
2018-06-04T15:04:28.187Z,24.10
2018-06-04T15:07:03.525Z,27.23
2018-06-04T15:09:38.763Z,27.90
2018-06-04T15:12:13.471Z,25.90
2018-06-04T15:14:48.696Z,23.23
2018-06-04T15:17:23.570Z,24.03
2018-06-04T15:19:58.651Z,23.57
2018-06-04T15:22:34.079Z,22.60
2018-06-04T15:25:09.022Z,23.63
2018-06-04T15:27:43.969Z,26.00
2018-06-04T15:30:19.116Z,24.93
2018-06-04T15:32:54.188Z,24.03
2018-06-04T15:35:28.948Z,23.67
2018-06-04T15:38:04.072Z,21.83
2018-06-04T15:40:38.915Z,26.10
2018-06-04T15:43:13.686Z,31.70
2018-06-04T15:45:49.037Z,24.90
2018-06-04T15:48:26.258Z,25.13
2018-06-04T15:51:01.494Z,27.13
2018-06-04T15:53:36.847Z,27.17
2018-06-04T15:56:11.692Z,27.43
2018-06-04T15:58:47.219Z,25.97
2018-06-04T16:01:22.129Z,33.63
2018-06-04T16:03:57.468Z,27.40
2018-06-04T16:06:32.317Z,25.50
2018-06-04T16:09:07.953Z,27.67
2018-06-04T16:11:43.011Z,27.83
2018-06-04T16:14:13.853Z,26.53
2018-06-04T16:16:48.684Z,26.03
2018-06-04T16:19:23.848Z,24.33
2018-06-04T16:21:58.495Z,22.70
2018-06-04T16:24:33.450Z,21.40
2018-06-04T16:27:09.057Z,21.20
2018-06-04T16:29:44.301Z,22.60
2018-06-04T16:32:19.350Z,21.37
2018-06-04T16:34:54.106Z,22.67
2018-06-04T16:37:29.243Z,24.83
2018-06-04T16:40:04.941Z,26.20
2018-06-04T16:42:40.184Z,22.20
2018-06-04T16:45:15.363Z,22.10
2018-06-04T16:47:50.269Z,22.83
2018-06-04T16:50:30.891Z,21.63
2018-06-04T16:53:00.606Z,21.07
2018-06-04T16:55:29.997Z,23.23
2018-06-04T16:57:59.200Z,23.63
2018-06-04T17:00:28.878Z,22.17
2018-06-04T17:02:58.551Z,20.80
2018-06-04T17:05:28.098Z,22.10
2018-06-04T17:07:57.504Z,24.80
2018-06-04T17:10:26.980Z,20.43
2018-06-04T17:12:56.448Z,22.27
2018-06-04T17:15:26.286Z,25.23
2018-06-04T17:17:55.644Z,21.53
2018-06-04T17:20:29.019Z,23.00
2018-06-04T17:22:58.481Z,21.57
2018-06-04T17:25:27.958Z,23.03
2018-06-04T17:27:57.649Z,24.27
2018-06-04T17:30:27.391Z,20.50
2018-06-04T17:32:56.663Z,19.80
2018-06-04T17:35:31.581Z,21.63
2018-06-04T17:38:06.885Z,20.00
2018-06-04T17:40:41.689Z,24.00
2018-06-04T17:43:16.730Z,22.60
2018-06-04T17:45:51.280Z,19.90
2018-06-04T17:48:26.284Z,21.80
2018-06-04T17:51:06.075Z,23.47
2018-06-04T17:53:41.048Z,22.27
2018-06-04T17:56:16.422Z,20.17
2018-06-04T17:58:51.535Z,19.43
2018-06-04T18:01:26.687Z,19.97
2018-06-04T18:04:02.648Z,21.57
2018-06-04T18:06:38.411Z,20.10
2018-06-04T18:09:13.648Z,21.10
2018-06-04T18:11:52.146Z,25.03
2018-06-04T18:14:27.733Z,18.73
2018-06-04T18:17:03.322Z,18.03
2018-06-04T18:19:38.426Z,20.17
2018-06-04T18:22:13.911Z,19.67
2018-06-04T18:24:48.983Z,18.50
2018-06-04T18:27:25.145Z,19.90
2018-06-04T18:30:01.473Z,22.20
2018-06-04T18:32:38.893Z,23.90
2018-06-04T18:35:13.493Z,20.70
2018-06-04T18:37:48.735Z,20.47
2018-06-04T18:40:24.011Z,19.80
2018-06-04T18:42:59.015Z,20.70
2018-06-04T18:45:34.214Z,20.33
2018-06-04T18:48:09.229Z,20.67
2018-06-04T18:50:44.414Z,18.60
2018-06-04T18:53:19.342Z,20.93
2018-06-04T18:55:54.462Z,20.23
2018-06-04T18:58:29.534Z,20.60
2018-06-04T19:01:04.390Z,20.63
2018-06-04T19:03:39.500Z,20.80
2018-06-04T19:06:14.670Z,19.43
2018-06-04T19:08:50.526Z,20.90
2018-06-04T19:11:25.675Z,20.73
2018-06-04T19:14:00.462Z,21.57
2018-06-04T19:16:35.576Z,23.80
2018-06-04T19:19:10.638Z,20.80
2018-06-04T19:21:46.543Z,19.57
2018-06-04T19:24:21.455Z,21.30
2018-06-04T19:26:56.991Z,21.60
2018-06-04T19:29:32.718Z,20.60
2018-06-04T19:32:08.319Z,22.23
2018-06-04T19:34:43.179Z,22.40
2018-06-04T19:37:18.100Z,22.50
2018-06-04T19:39:53.413Z,20.07
2018-06-04T19:42:28.243Z,21.13
2018-06-04T19:45:03.213Z,25.47
2018-06-04T19:47:38.217Z,20.40
2018-06-04T19:50:13.329Z,25.63
2018-06-04T19:52:48.566Z,24.53
2018-06-04T19:55:24.083Z,19.30
2018-06-04T19:57:59.206Z,23.37
2018-06-04T20:00:35.283Z,20.27
2018-06-04T20:03:10.375Z,21.50
2018-06-04T20:05:46.710Z,20.73
2018-06-04T20:08:22.049Z,24.73
2018-06-04T20:10:57.469Z,19.90
2018-06-04T20:13:32.700Z,21.07
2018-06-04T20:16:08.125Z,21.50
2018-06-04T20:18:42.974Z,19.77
2018-06-04T20:21:18.237Z,20.07
2018-06-04T20:23:53.734Z,21.80
2018-06-04T20:26:29.666Z,19.67
2018-06-04T20:29:04.548Z,23.83
2018-06-04T20:31:34.643Z,21.87
2018-06-04T20:34:09.799Z,24.30
2018-06-04T20:36:45.505Z,25.93
2018-06-04T20:39:20.775Z,25.30
2018-06-04T20:41:55.775Z,25.70
2018-06-04T20:44:30.755Z,24.80
2018-06-04T20:47:05.771Z,24.43
2018-06-04T20:49:40.889Z,23.90
2018-06-04T20:52:15.941Z,23.50
2018-06-04T20:54:51.450Z,28.67
2018-06-04T20:57:26.792Z,22.20
2018-06-04T21:00:01.917Z,24.80
2018-06-04T21:02:37.121Z,24.40
2018-06-04T21:05:12.141Z,24.60
2018-06-04T21:07:47.396Z,27.20
2018-06-04T21:10:22.222Z,23.13
2018-06-04T21:12:57.357Z,26.93
2018-06-04T21:15:32.375Z,25.93
2018-06-04T21:18:07.818Z,24.57
2018-06-04T21:20:42.916Z,26.83
2018-06-04T21:23:17.993Z,29.70
2018-06-04T21:25:52.930Z,26.93
2018-06-04T21:28:27.967Z,27.90
2018-06-04T21:31:02.857Z,26.20
2018-06-04T21:33:37.997Z,25.53
2018-06-04T21:36:12.943Z,30.50
2018-06-04T21:38:48.238Z,29.50
2018-06-04T21:41:23.361Z,24.90
2018-06-04T21:43:58.402Z,27.07
2018-06-04T21:46:33.125Z,27.87
2018-06-04T21:49:08.243Z,27.63
2018-06-04T21:51:43.514Z,27.13
2018-06-04T21:54:18.454Z,28.23
2018-06-04T21:56:53.446Z,26.90
2018-06-04T21:59:28.279Z,26.27
2018-06-04T22:02:03.237Z,29.47
2018-06-04T22:04:38.476Z,25.87
2018-06-04T22:07:13.882Z,28.93
2018-06-04T22:09:49.268Z,26.20
2018-06-04T22:12:23.987Z,27.10
2018-06-04T22:14:58.976Z,29.27
2018-06-04T22:17:33.648Z,31.50
2018-06-04T22:20:08.671Z,28.77
2018-06-04T22:22:43.730Z,36.53
2018-06-04T22:25:18.902Z,28.77
2018-06-04T22:27:54.011Z,26.70
2018-06-04T22:30:42.780Z,32.73
2018-06-04T22:33:19.653Z,28.47
2018-06-04T22:36:16.273Z,30.13
2018-06-04T22:38:51.398Z,28.20
2018-06-04T22:41:27.615Z,33.70
2018-06-04T22:44:03.266Z,30.90
2018-06-04T22:46:38.463Z,31.10
2018-06-04T22:49:16.367Z,30.93
2018-06-04T22:51:51.681Z,30.03
2018-06-04T22:54:26.890Z,28.73
2018-06-04T22:57:01.879Z,33.17
2018-06-04T22:59:36.740Z,29.70
2018-06-04T23:02:12.007Z,32.63
2018-06-04T23:04:53.774Z,30.23
2018-06-04T23:07:29.279Z,29.10
2018-06-04T23:10:04.321Z,31.23
2018-06-04T23:12:39.710Z,35.73
2018-06-04T23:15:15.838Z,31.70
2018-06-04T23:17:51.750Z,36.87
2018-06-04T23:20:27.037Z,34.30
2018-06-04T23:23:05.003Z,30.03
2018-06-04T23:25:41.604Z,33.03
2018-06-04T23:28:16.475Z,31.80
2018-06-04T23:30:45.643Z,30.73
2018-06-04T23:33:20.974Z,30.83
2018-06-04T23:35:55.763Z,35.87
2018-06-04T23:38:30.678Z,33.10
2018-06-04T23:41:05.143Z,33.30
2018-06-04T23:43:40.274Z,36.30
2018-06-04T23:46:15.226Z,36.07
2018-06-04T23:48:50.132Z,40.73
2018-06-04T23:51:25.045Z,31.60
2018-06-04T23:53:59.719Z,34.63
2018-06-04T23:56:34.677Z,34.87
2018-06-04T23:59:09.334Z,35.53
